createdAt,value
2023-04-12T00:00:42.726Z,510.00
2023-04-12T00:01:42.720Z,509.00
2023-04-12T00:02:43.024Z,508.00
2023-04-12T00:03:42.904Z,510.00
2023-04-12T00:04:42.986Z,508.00
2023-04-12T00:05:42.711Z,507.00
2023-04-12T00:06:42.687Z,506.00
2023-04-12T00:07:42.742Z,508.00
2023-04-12T00:08:42.659Z,508.00
2023-04-12T00:09:42.648Z,507.00
2023-04-12T00:10:42.639Z,508.00
2023-04-12T00:11:42.626Z,509.00
2023-04-12T00:12:42.611Z,509.00
2023-04-12T00:13:42.592Z,510.00
2023-04-12T00:14:42.585Z,509.00
2023-04-12T00:15:42.606Z,508.00
2023-04-12T00:16:42.573Z,512.00
2023-04-12T00:17:42.583Z,512.00
2023-04-12T00:18:42.555Z,514.00
2023-04-12T00:19:42.516Z,516.00
2023-04-12T00:20:42.500Z,514.00
2023-04-12T00:21:42.481Z,516.00
2023-04-12T00:22:42.540Z,513.00
2023-04-12T00:23:42.462Z,513.00
2023-04-12T00:24:42.443Z,512.00
2023-04-12T00:25:42.450Z,510.00
2023-04-12T00:26:42.416Z,509.00
2023-04-12T00:27:42.409Z,506.00
2023-04-12T00:28:42.387Z,506.00
2023-04-12T00:29:42.378Z,506.00
2023-04-12T00:30:42.370Z,505.00
2023-04-12T00:31:42.466Z,506.00
2023-04-12T00:32:42.392Z,508.00
2023-04-12T00:33:42.319Z,507.00
2023-04-12T00:34:42.355Z,508.00
2023-04-12T00:35:42.327Z,509.00
2023-04-12T00:36:42.276Z,508.00
2023-04-12T00:37:42.257Z,507.00
2023-04-12T00:38:42.265Z,508.00
2023-04-12T00:39:42.264Z,508.00
2023-04-12T00:40:42.271Z,508.00
2023-04-12T00:41:42.204Z,511.00
2023-04-12T00:42:42.194Z,509.00
2023-04-12T00:43:42.179Z,508.00
2023-04-12T00:44:42.165Z,509.00
2023-04-12T00:45:42.143Z,511.00
2023-04-12T00:46:42.160Z,511.00
2023-04-12T00:47:42.248Z,513.00
2023-04-12T00:48:42.121Z,512.00
2023-04-12T00:49:42.086Z,512.00
2023-04-12T00:50:42.093Z,509.00
2023-04-12T00:51:42.116Z,507.00
2023-04-12T00:52:42.068Z,508.00
2023-04-12T00:53:42.115Z,507.00
2023-04-12T00:54:42.049Z,508.00
2023-04-12T00:55:42.050Z,507.00
2023-04-12T00:56:42.040Z,507.00
2023-04-12T00:57:42.049Z,509.00
2023-04-12T00:58:42.044Z,508.00
2023-04-12T00:59:42.051Z,507.00
2023-04-12T01:00:42.090Z,505.00
2023-04-12T01:01:42.096Z,504.00
2023-04-12T01:02:42.186Z,502.00
2023-04-12T01:03:42.122Z,506.00
2023-04-12T01:04:41.997Z,507.00
2023-04-12T01:05:41.998Z,504.00
2023-04-12T01:06:41.985Z,503.00
2023-04-12T01:07:41.963Z,506.00
2023-04-12T01:08:41.960Z,506.00
2023-04-12T01:09:41.947Z,505.00
2023-04-12T01:10:41.945Z,507.00
2023-04-12T01:11:41.922Z,510.00
2023-04-12T01:12:41.906Z,513.00
2023-04-12T01:13:41.907Z,514.00
2023-04-12T01:14:41.911Z,509.00
2023-04-12T01:15:41.880Z,507.00
2023-04-12T01:16:41.968Z,507.00
2023-04-12T01:17:41.922Z,509.00
2023-04-12T01:18:41.843Z,509.00
2023-04-12T01:19:41.842Z,509.00
2023-04-12T01:20:41.822Z,507.00
2023-04-12T01:21:41.806Z,504.00
2023-04-12T01:22:41.794Z,506.00
2023-04-12T01:23:41.777Z,507.00
2023-04-12T01:24:41.752Z,508.00
2023-04-12T01:25:41.746Z,507.00
2023-04-12T01:26:41.749Z,505.00
2023-04-12T01:27:41.715Z,507.00
2023-04-12T01:28:41.686Z,509.00
2023-04-12T01:29:41.681Z,508.00
2023-04-12T01:30:41.660Z,509.00
2023-04-12T01:31:41.699Z,503.00
2023-04-12T01:32:41.661Z,502.00
2023-04-12T01:33:41.615Z,501.00
2023-04-12T01:34:41.625Z,502.00
2023-04-12T01:35:41.673Z,499.00
2023-04-12T01:36:41.625Z,499.00
2023-04-12T01:37:41.628Z,499.00
2023-04-12T01:38:41.630Z,502.00
2023-04-12T01:39:41.634Z,500.00
2023-04-12T01:40:41.635Z,500.00
2023-04-12T01:43:00.723Z,505.00
2023-04-12T01:44:00.728Z,509.00
2023-04-12T01:45:00.717Z,510.00
2023-04-12T01:46:00.690Z,508.00
2023-04-12T01:47:00.662Z,509.00
2023-04-12T01:48:00.692Z,509.00
2023-04-12T01:49:00.620Z,510.00
2023-04-12T01:50:00.627Z,509.00
2023-04-12T01:51:00.594Z,507.00
2023-04-12T01:52:00.586Z,506.00
2023-04-12T01:53:00.558Z,502.00
2023-04-12T01:54:00.552Z,501.00
2023-04-12T01:55:00.547Z,502.00
2023-04-12T01:56:00.536Z,502.00
2023-04-12T01:57:00.526Z,503.00
2023-04-12T01:58:00.512Z,502.00
2023-04-12T01:59:00.489Z,498.00
2023-04-12T02:00:00.468Z,497.00
2023-04-12T02:01:00.481Z,495.00
2023-04-12T02:02:00.481Z,491.00
2023-04-12T02:03:00.679Z,491.00
2023-04-12T02:04:00.968Z,489.00
2023-04-12T02:05:00.373Z,490.00
2023-04-12T02:06:00.356Z,491.00
2023-04-12T02:07:00.321Z,493.00
2023-04-12T02:08:00.309Z,494.00
2023-04-12T02:09:00.280Z,495.00
2023-04-12T02:10:00.255Z,495.00
2023-04-12T02:11:00.227Z,494.00
2023-04-12T02:12:00.210Z,496.00
2023-04-12T02:13:00.183Z,494.00
2023-04-12T02:14:00.190Z,494.00
2023-04-12T02:15:00.168Z,495.00
2023-04-12T02:16:00.153Z,495.00
2023-04-12T02:17:00.170Z,494.00
2023-04-12T02:18:00.130Z,494.00
2023-04-12T02:19:00.102Z,494.00
2023-04-12T02:20:00.082Z,494.00
2023-04-12T02:21:00.054Z,498.00
2023-04-12T02:22:00.047Z,498.00
2023-04-12T02:23:00.030Z,499.00
2023-04-12T02:24:00.010Z,499.00
2023-04-12T02:25:00.024Z,501.00
2023-04-12T02:25:59.998Z,500.00
2023-04-12T02:26:59.994Z,504.00
2023-04-12T02:27:59.974Z,504.00
2023-04-12T02:28:59.967Z,502.00
2023-04-12T02:29:59.966Z,500.00
2023-04-12T02:30:59.988Z,500.00
2023-04-12T02:31:59.951Z,501.00
2023-04-12T02:32:59.964Z,499.00
2023-04-12T02:33:59.917Z,498.00
2023-04-12T02:34:59.910Z,496.00
2023-04-12T02:35:59.937Z,493.00
2023-04-12T02:36:59.888Z,495.00
2023-04-12T02:37:59.888Z,497.00
2023-04-12T02:38:59.893Z,499.00
2023-04-12T02:39:59.861Z,502.00
2023-04-12T02:40:59.853Z,499.00
2023-04-12T02:41:59.848Z,499.00
2023-04-12T02:42:59.821Z,499.00
2023-04-12T02:43:59.819Z,498.00
2023-04-12T02:44:59.799Z,495.00
2023-04-12T02:45:59.816Z,495.00
2023-04-12T02:46:59.828Z,495.00
2023-04-12T02:47:59.903Z,496.00
2023-04-12T02:48:59.871Z,496.00
2023-04-12T02:49:59.920Z,496.00
2023-04-12T02:50:59.935Z,494.00
2023-04-12T02:51:59.934Z,493.00
2023-04-12T02:52:59.910Z,493.00
2023-04-12T02:53:59.910Z,492.00
2023-04-12T02:54:59.902Z,494.00
2023-04-12T02:55:59.891Z,493.00
2023-04-12T02:56:59.884Z,493.00
2023-04-12T02:57:59.872Z,491.00
2023-04-12T02:58:59.856Z,490.00
2023-04-12T02:59:59.874Z,486.00
2023-04-12T03:00:59.892Z,483.00
2023-04-12T03:01:59.897Z,483.00
2023-04-12T03:02:59.913Z,482.00
2023-04-12T03:04:00.213Z,481.00
2023-04-12T03:04:59.818Z,480.00
2023-04-12T03:05:59.796Z,478.00
2023-04-12T03:06:59.840Z,477.00
2023-04-12T03:07:59.899Z,477.00
2023-04-12T03:08:59.863Z,476.00
2023-04-12T03:09:59.898Z,475.00
2023-04-12T03:10:59.943Z,473.00
2023-04-12T03:12:00.006Z,468.00
2023-04-12T03:13:00.048Z,468.00
2023-04-12T03:14:00.170Z,469.00
2023-04-12T03:15:00.159Z,468.00
2023-04-12T03:16:00.301Z,469.00
2023-04-12T03:17:00.378Z,469.00
2023-04-12T03:18:00.394Z,466.00
2023-04-12T03:19:00.409Z,466.00
2023-04-12T03:20:00.481Z,465.00
2023-04-12T03:21:00.537Z,463.00
2023-04-12T03:22:00.614Z,462.00
2023-04-12T03:23:00.684Z,462.00
2023-04-12T03:24:00.730Z,463.00
2023-04-12T03:25:00.795Z,464.00
2023-04-12T03:26:00.910Z,464.00
2023-04-12T03:27:00.954Z,464.00
2023-04-12T03:28:00.993Z,463.00
2023-04-12T03:29:01.098Z,464.00
2023-04-12T03:30:01.162Z,461.00
2023-04-12T03:31:01.262Z,460.00
2023-04-12T03:32:01.341Z,457.00
2023-04-12T03:33:01.428Z,456.00
2023-04-12T03:34:01.439Z,454.00
2023-04-12T03:35:01.592Z,453.00
2023-04-12T03:36:01.662Z,454.00
2023-04-12T03:37:01.740Z,456.00
2023-04-12T03:38:01.802Z,457.00
2023-04-12T03:39:01.835Z,456.00
2023-04-12T03:40:02.028Z,458.00
2023-04-12T03:41:02.001Z,458.00
2023-04-12T03:42:02.064Z,461.00
2023-04-12T03:43:02.348Z,462.00
2023-04-12T03:44:02.269Z,461.00
2023-04-12T03:45:02.323Z,462.00
2023-04-12T03:46:02.455Z,460.00
2023-04-12T03:47:02.440Z,458.00
2023-04-12T03:48:02.669Z,453.00
2023-04-12T03:49:02.606Z,453.00
2023-04-12T03:50:10.153Z,452.00
2023-04-12T03:51:03.678Z,452.00
2023-04-12T03:52:02.702Z,451.00
2023-04-12T03:53:02.697Z,452.00
2023-04-12T03:54:02.764Z,451.00
2023-04-12T03:55:02.768Z,452.00
2023-04-12T03:56:02.787Z,453.00
2023-04-12T03:57:02.781Z,453.00
2023-04-12T03:58:02.791Z,453.00
2023-04-12T03:59:02.777Z,455.00
2023-04-12T04:00:02.867Z,456.00
2023-04-12T04:01:02.967Z,455.00
2023-04-12T04:02:03.006Z,455.00
2023-04-12T04:03:03.313Z,456.00
2023-04-12T04:04:03.625Z,457.00
2023-04-12T04:05:03.227Z,455.00
2023-04-12T04:06:03.296Z,457.00
2023-04-12T04:07:03.418Z,454.00
2023-04-12T04:08:03.432Z,453.00
2023-04-12T04:09:03.461Z,452.00
2023-04-12T04:10:03.494Z,453.00
2023-04-12T04:11:03.554Z,453.00
2023-04-12T04:12:03.611Z,453.00
2023-04-12T04:13:03.724Z,455.00
2023-04-12T04:14:03.616Z,455.00
2023-04-12T04:15:03.618Z,454.00
2023-04-12T04:16:03.726Z,451.00
2023-04-12T04:17:03.676Z,448.00
2023-04-12T04:18:03.736Z,448.00
2023-04-12T04:19:03.750Z,448.00
2023-04-12T04:20:03.745Z,449.00
2023-04-12T04:21:03.741Z,451.00
2023-04-12T04:22:03.735Z,451.00
2023-04-12T04:23:03.751Z,453.00
2023-04-12T04:24:03.776Z,454.00
2023-04-12T04:25:03.805Z,453.00
2023-04-12T04:26:03.809Z,452.00
2023-04-12T04:27:03.837Z,454.00
2023-04-12T04:28:03.822Z,456.00
2023-04-12T04:29:03.864Z,460.00
2023-04-12T04:30:03.898Z,460.00
2023-04-12T04:31:03.877Z,458.00
2023-04-12T04:32:04.008Z,455.00
2023-04-12T04:33:04.033Z,453.00
2023-04-12T04:34:03.913Z,452.00
2023-04-12T04:35:03.958Z,452.00
2023-04-12T04:36:04.058Z,455.00
2023-04-12T04:37:04.070Z,458.00
2023-04-12T04:38:04.141Z,458.00
2023-04-12T04:39:04.223Z,457.00
2023-04-12T04:40:04.277Z,458.00
2023-04-12T04:41:04.332Z,460.00
2023-04-12T04:42:04.396Z,459.00
2023-04-12T04:43:05.798Z,459.00
2023-04-12T04:44:04.494Z,459.00
2023-04-12T04:45:04.487Z,457.00
2023-04-12T04:46:04.490Z,456.00
2023-04-12T04:47:04.430Z,455.00
2023-04-12T04:48:04.464Z,455.00
2023-04-12T04:49:04.422Z,455.00
2023-04-12T04:50:04.425Z,454.00
2023-04-12T04:51:04.438Z,454.00
2023-04-12T04:52:04.425Z,454.00
2023-04-12T04:53:04.423Z,456.00
2023-04-12T04:54:04.410Z,457.00
2023-04-12T04:55:06.893Z,456.00
2023-04-12T04:56:04.400Z,456.00
2023-04-12T04:57:04.400Z,457.00
2023-04-12T04:58:04.412Z,455.00
2023-04-12T04:59:04.397Z,456.00
2023-04-12T05:00:04.391Z,458.00
2023-04-12T05:01:04.427Z,457.00
2023-04-12T05:02:04.474Z,458.00
2023-04-12T05:03:04.479Z,459.00
2023-04-12T05:04:04.488Z,460.00
2023-04-12T05:05:04.386Z,461.00
2023-04-12T05:06:04.398Z,459.00
2023-04-12T05:07:04.383Z,460.00
2023-04-12T05:08:04.396Z,458.00
2023-04-12T05:09:04.389Z,460.00
2023-04-12T05:10:04.394Z,460.00
2023-04-12T05:11:04.400Z,460.00
2023-04-12T05:12:04.410Z,461.00
2023-04-12T05:13:04.436Z,461.00
2023-04-12T05:14:04.444Z,462.00
2023-04-12T05:15:11.758Z,461.00
2023-04-12T05:16:05.462Z,460.00
2023-04-12T05:17:04.556Z,459.00
2023-04-12T05:18:04.524Z,459.00
2023-04-12T05:19:04.491Z,459.00
2023-04-12T05:20:04.476Z,455.00
2023-04-12T05:21:04.485Z,455.00
2023-04-12T05:22:04.494Z,455.00
2023-04-12T05:23:04.512Z,455.00
2023-04-12T05:24:04.574Z,455.00
2023-04-12T05:25:04.537Z,456.00
2023-04-12T05:26:04.548Z,455.00
2023-04-12T05:27:04.549Z,456.00
2023-04-12T05:28:04.563Z,457.00
2023-04-12T05:29:04.568Z,454.00
2023-04-12T05:30:04.574Z,453.00
2023-04-12T05:31:04.653Z,453.00
2023-04-12T05:32:04.612Z,455.00
2023-04-12T05:33:04.651Z,463.00
2023-04-12T05:34:04.623Z,476.00
2023-04-12T05:35:04.707Z,496.00
2023-04-12T05:36:04.749Z,539.00
2023-04-12T05:37:04.655Z,590.00
2023-04-12T05:38:04.678Z,598.00
2023-04-12T05:39:04.686Z,606.00
2023-04-12T05:40:04.790Z,606.00
2023-04-12T05:41:04.704Z,609.00
2023-04-12T05:42:04.714Z,613.00
2023-04-12T05:43:04.742Z,615.00
2023-04-12T05:44:04.748Z,619.00
2023-04-12T05:45:04.764Z,623.00
2023-04-12T05:46:04.794Z,660.00
2023-04-12T05:47:04.809Z,628.00
2023-04-12T05:48:04.869Z,617.00
2023-04-12T05:49:04.820Z,605.00
2023-04-12T05:50:06.795Z,594.00
2023-04-12T05:51:04.836Z,557.00
2023-04-12T05:52:04.849Z,563.00
2023-04-12T05:53:04.871Z,561.00
2023-04-12T05:54:04.874Z,564.00
2023-04-12T05:55:04.892Z,564.00
2023-04-12T05:56:04.917Z,564.00
2023-04-12T05:57:04.960Z,569.00
2023-04-12T05:58:04.967Z,551.00
2023-04-12T05:59:04.988Z,538.00
2023-04-12T06:00:05.012Z,530.00
2023-04-12T06:01:05.052Z,528.00
2023-04-12T06:02:05.102Z,525.00
2023-04-12T06:03:05.235Z,523.00
2023-04-12T06:04:05.257Z,522.00
2023-04-12T06:05:05.392Z,521.00
2023-04-12T06:06:05.169Z,526.00
2023-04-12T06:07:05.198Z,533.00
2023-04-12T06:08:05.218Z,534.00
2023-04-12T06:09:05.229Z,536.00
2023-04-12T06:10:05.275Z,536.00
2023-04-12T06:11:05.262Z,542.00
2023-04-12T06:12:05.282Z,551.00
2023-04-12T06:13:05.314Z,562.00
2023-04-12T06:14:05.312Z,587.00
2023-04-12T06:15:05.326Z,617.00
2023-04-12T06:16:05.392Z,641.00
2023-04-12T06:17:05.349Z,678.00
2023-04-12T06:18:05.424Z,687.00
2023-04-12T06:19:05.362Z,698.00
2023-04-12T06:20:05.382Z,709.00
2023-04-12T06:21:05.401Z,745.00
2023-04-12T06:22:05.456Z,758.00
2023-04-12T06:23:05.522Z,765.00
2023-04-12T06:24:05.597Z,782.00
2023-04-12T06:25:05.642Z,797.00
2023-04-12T06:26:05.709Z,824.00
2023-04-12T06:27:05.779Z,838.00
2023-04-12T06:28:05.835Z,843.00
2023-04-12T06:29:05.909Z,846.00
2023-04-12T06:30:05.969Z,851.00
2023-04-12T06:31:06.029Z,857.00
2023-04-12T06:32:05.994Z,883.00
2023-04-12T06:33:06.028Z,892.00
2023-04-12T06:34:05.990Z,897.00
2023-04-12T06:35:05.994Z,902.00
2023-04-12T06:36:05.989Z,908.00
2023-04-12T06:37:05.973Z,914.00
2023-04-12T06:38:06.095Z,920.00
2023-04-12T06:39:05.963Z,935.00
2023-04-12T06:40:05.970Z,947.00
2023-04-12T06:41:06.004Z,953.00
2023-04-12T06:42:05.972Z,965.00
2023-04-12T06:43:06.005Z,997.00
2023-04-12T06:44:06.109Z,1023.00
2023-04-12T06:45:05.990Z,1015.00
2023-04-12T06:46:05.974Z,1018.00
2023-04-12T06:47:06.071Z,931.00
2023-04-12T06:48:05.994Z,944.00
2023-04-12T06:49:05.951Z,929.00
2023-04-12T06:50:05.941Z,928.00
2023-04-12T06:51:05.930Z,934.00
2023-04-12T06:52:05.915Z,939.00
2023-04-12T06:53:05.906Z,937.00
2023-04-12T06:54:06.137Z,942.00
2023-04-12T06:55:05.893Z,943.00
2023-04-12T06:56:05.871Z,947.00
2023-04-12T06:57:05.861Z,951.00
2023-04-12T06:58:05.859Z,959.00
2023-04-12T06:59:05.844Z,970.00
2023-04-12T07:00:06.033Z,978.00
2023-04-12T07:01:05.847Z,975.00
2023-04-12T07:02:05.831Z,976.00
2023-04-12T07:03:05.891Z,976.00
2023-04-12T07:04:05.839Z,976.00
2023-04-12T07:05:05.767Z,975.00
2023-04-12T07:06:17.675Z,972.00
2023-04-12T07:07:06.735Z,976.00
2023-04-12T07:08:05.732Z,978.00
2023-04-12T07:09:05.732Z,983.00
2023-04-12T07:10:05.713Z,989.00
2023-04-12T07:11:19.778Z,997.00
2023-04-12T07:12:06.690Z,1004.00
2023-04-12T07:13:05.671Z,1008.00
2023-04-12T07:14:05.654Z,1013.00
2023-04-12T07:15:05.650Z,1018.00
2023-04-12T07:16:05.796Z,1021.00
2023-04-12T07:17:05.624Z,1021.00
2023-04-12T07:18:05.656Z,1024.00
2023-04-12T07:19:05.596Z,1019.00
2023-04-12T07:20:05.589Z,1014.00
2023-04-12T07:21:05.566Z,1013.00
2023-04-12T07:22:05.547Z,1017.00
2023-04-12T07:23:05.542Z,1019.00
2023-04-12T07:24:05.527Z,1026.00
2023-04-12T07:25:05.525Z,1028.00
2023-04-12T07:26:05.549Z,1027.00
2023-04-12T07:27:05.498Z,1030.00
2023-04-12T07:28:06.998Z,1032.00
2023-04-12T07:29:05.477Z,1036.00
2023-04-12T07:30:05.434Z,1037.00
2023-04-12T07:31:05.421Z,1038.00
2023-04-12T07:32:05.549Z,1035.00
2023-04-12T07:33:18.491Z,1037.00
2023-04-12T07:34:06.482Z,1042.00
2023-04-12T07:35:05.337Z,1041.00
2023-04-12T07:36:05.339Z,1040.00
2023-04-12T07:37:05.299Z,1040.00
2023-04-12T07:38:05.256Z,1040.00
2023-04-12T07:39:05.251Z,1040.00
2023-04-12T07:40:05.241Z,1034.00
2023-04-12T07:41:05.195Z,893.00
2023-04-12T07:42:05.186Z,906.00
2023-04-12T07:43:05.155Z,922.00
2023-04-12T07:44:05.137Z,935.00
2023-04-12T07:45:05.110Z,947.00
2023-04-12T07:46:05.182Z,954.00
2023-04-12T07:47:05.066Z,961.00
2023-04-12T07:48:05.086Z,972.00
2023-04-12T07:49:05.035Z,982.00
2023-04-12T07:50:05.002Z,991.00
2023-04-12T07:51:04.972Z,991.00
2023-04-12T07:52:04.957Z,991.00
2023-04-12T07:53:04.942Z,993.00
2023-04-12T07:54:04.965Z,1003.00
2023-04-12T07:55:04.921Z,1012.00
2023-04-12T07:56:04.945Z,1023.00
2023-04-12T07:57:04.887Z,1028.00
2023-04-12T07:58:04.840Z,1029.00
2023-04-12T07:59:04.792Z,1030.00
2023-04-12T08:00:04.779Z,1027.00
2023-04-12T08:01:04.753Z,993.00
2023-04-12T08:02:04.800Z,979.00
2023-04-12T08:03:04.948Z,973.00
2023-04-12T08:04:04.872Z,974.00
2023-04-12T08:05:04.653Z,967.00
2023-04-12T08:06:04.681Z,955.00
2023-04-12T08:07:04.607Z,961.00
2023-04-12T08:08:04.602Z,965.00
2023-04-12T08:09:04.586Z,967.00
2023-04-12T08:10:04.570Z,972.00
2023-04-12T08:11:04.559Z,923.00
2023-04-12T08:12:04.591Z,910.00
2023-04-12T08:13:04.556Z,904.00
2023-04-12T08:14:04.441Z,905.00
2023-04-12T08:15:04.417Z,958.00
2023-04-12T08:16:04.443Z,936.00
2023-04-12T08:17:04.385Z,939.00
2023-04-12T08:18:04.494Z,829.00
2023-04-12T08:19:04.312Z,832.00
2023-04-12T08:20:04.307Z,760.00
2023-04-12T08:21:04.279Z,752.00
2023-04-12T08:22:04.250Z,739.00
2023-04-12T08:23:04.229Z,759.00
2023-04-12T08:24:04.205Z,710.00
2023-04-12T08:25:04.199Z,692.00
2023-04-12T08:26:04.206Z,693.00
2023-04-12T08:27:04.140Z,692.00
2023-04-12T08:28:04.170Z,656.00
2023-04-12T08:29:04.100Z,647.00
2023-04-12T08:30:04.093Z,654.00
2023-04-12T08:31:04.218Z,704.00
2023-04-12T08:32:04.066Z,710.00
2023-04-12T08:33:04.155Z,710.00
2023-04-12T08:34:04.026Z,697.00
2023-04-12T08:35:04.039Z,656.00
2023-04-12T08:36:04.036Z,648.00
2023-04-12T08:37:03.963Z,636.00
2023-04-12T08:38:03.955Z,618.00
2023-04-12T08:39:03.941Z,598.00
2023-04-12T08:40:03.937Z,598.00
2023-04-12T08:41:03.895Z,594.00
2023-04-12T08:42:03.897Z,589.00
2023-04-12T08:43:03.913Z,580.00
2023-04-12T08:44:03.883Z,571.00
2023-04-12T08:45:03.861Z,560.00
2023-04-12T08:46:03.878Z,557.00
2023-04-12T08:47:03.852Z,551.00
2023-04-12T08:48:03.844Z,554.00
2023-04-12T08:49:03.833Z,578.00
2023-04-12T08:50:03.825Z,632.00
2023-04-12T08:51:03.805Z,647.00
2023-04-12T08:52:03.819Z,670.00
2023-04-12T08:53:03.798Z,700.00
2023-04-12T08:54:03.780Z,714.00
2023-04-12T08:55:03.796Z,728.00
2023-04-12T08:56:03.777Z,741.00
2023-04-12T08:57:03.750Z,760.00
2023-04-12T08:58:03.740Z,783.00
2023-04-12T08:59:03.725Z,805.00
2023-04-12T09:00:03.767Z,824.00
2023-04-12T09:01:03.748Z,841.00
2023-04-12T09:02:03.797Z,878.00
2023-04-12T09:03:03.901Z,897.00
2023-04-12T09:04:04.077Z,913.00
2023-04-12T09:05:03.742Z,917.00
2023-04-12T09:06:03.605Z,928.00
2023-04-12T09:07:03.589Z,945.00
2023-04-12T09:08:03.649Z,991.00
2023-04-12T09:09:03.562Z,997.00
2023-04-12T09:10:03.538Z,1006.00
2023-04-12T09:11:03.516Z,1015.00
2023-04-12T09:12:03.466Z,1066.00
2023-04-12T09:13:03.445Z,1084.00
2023-04-12T09:14:03.554Z,1095.00
2023-04-12T09:15:03.403Z,1109.00
2023-04-12T09:16:03.362Z,1106.00
2023-04-12T09:17:03.518Z,1111.00
2023-04-12T09:18:03.345Z,1142.00
2023-04-12T09:19:03.290Z,1142.00
2023-04-12T09:20:03.291Z,1132.00
2023-04-12T09:21:03.233Z,1136.00
2023-04-12T09:22:03.231Z,1136.00
2023-04-12T09:23:03.185Z,1129.00
2023-04-12T09:24:03.172Z,991.00
2023-04-12T09:25:03.385Z,1025.00
2023-04-12T09:26:03.157Z,1034.00
2023-04-12T09:27:03.099Z,959.00
2023-04-12T09:28:03.087Z,923.00
2023-04-12T09:29:03.061Z,954.00
2023-04-12T09:30:03.080Z,905.00
2023-04-12T09:31:03.125Z,896.00
2023-04-12T09:32:03.179Z,897.00
2023-04-12T09:33:03.140Z,888.00
2023-04-12T09:34:03.139Z,885.00
2023-04-12T09:35:03.115Z,804.00
2023-04-12T09:36:03.208Z,795.00
2023-04-12T09:37:03.138Z,737.00
2023-04-12T09:38:03.173Z,804.00
2023-04-12T09:39:03.172Z,841.00
2023-04-12T09:40:03.274Z,819.00
2023-04-12T09:41:03.262Z,805.00
2023-04-12T09:42:03.315Z,806.00
2023-04-12T09:43:03.316Z,818.00
2023-04-12T09:44:03.360Z,827.00
2023-04-12T09:45:03.384Z,841.00
2023-04-12T09:46:03.424Z,842.00
2023-04-12T09:47:03.429Z,771.00
2023-04-12T09:48:03.561Z,704.00
2023-04-12T09:49:03.430Z,703.00
2023-04-12T09:50:03.408Z,697.00
2023-04-12T09:51:03.389Z,692.00
2023-04-12T09:52:03.366Z,685.00
2023-04-12T09:53:03.356Z,679.00
2023-04-12T09:54:03.374Z,675.00
2023-04-12T09:55:03.288Z,672.00
2023-04-12T09:56:03.401Z,667.00
2023-04-12T09:57:03.251Z,661.00
2023-04-12T09:58:03.227Z,658.00
2023-04-12T09:59:03.272Z,653.00
2023-04-12T10:00:03.183Z,647.00
2023-04-12T10:01:03.207Z,640.00
2023-04-12T10:02:03.207Z,638.00
2023-04-12T10:03:03.361Z,632.00
2023-04-12T10:04:03.619Z,628.00
2023-04-12T10:05:03.327Z,625.00
2023-04-12T10:06:03.114Z,623.00
2023-04-12T10:07:03.092Z,620.00
2023-04-12T10:08:03.067Z,613.00
2023-04-12T10:09:03.016Z,602.00
2023-04-12T10:10:03.006Z,596.00
2023-04-12T10:11:02.985Z,590.00
2023-04-12T10:12:03.063Z,589.00
2023-04-12T10:13:02.958Z,583.00
2023-04-12T10:14:02.979Z,579.00
2023-04-12T10:15:02.920Z,575.00
2023-04-12T10:16:02.965Z,571.00
2023-04-12T10:17:02.917Z,566.00
2023-04-12T10:18:02.961Z,563.00
2023-04-12T10:19:02.863Z,560.00
2023-04-12T10:20:02.854Z,557.00
2023-04-12T10:21:02.804Z,555.00
2023-04-12T10:22:02.820Z,551.00
2023-04-12T10:23:02.822Z,548.00
2023-04-12T10:24:02.751Z,546.00
2023-04-12T10:25:02.765Z,546.00
2023-04-12T10:26:02.769Z,543.00
2023-04-12T10:27:02.744Z,541.00
2023-04-12T10:28:02.748Z,540.00
2023-04-12T10:29:02.722Z,535.00
2023-04-12T10:30:02.741Z,535.00
2023-04-12T10:31:02.756Z,531.00
2023-04-12T10:32:02.811Z,525.00
2023-04-12T10:33:02.907Z,521.00
2023-04-12T10:34:02.758Z,519.00
2023-04-12T10:35:02.759Z,517.00
2023-04-12T10:36:02.844Z,514.00
2023-04-12T10:37:02.828Z,511.00
2023-04-12T10:38:02.804Z,508.00
2023-04-12T10:39:02.840Z,504.00
2023-04-12T10:40:02.852Z,503.00
2023-04-12T10:41:02.846Z,503.00
2023-04-12T10:42:02.871Z,503.00
2023-04-12T10:43:02.900Z,500.00
2023-04-12T10:44:02.900Z,501.00
2023-04-12T10:45:02.915Z,501.00
2023-04-12T10:46:02.912Z,503.00
2023-04-12T10:47:02.995Z,501.00
2023-04-12T10:48:02.982Z,502.00
2023-04-12T10:49:02.949Z,502.00
2023-04-12T10:50:02.961Z,499.00
2023-04-12T10:51:02.993Z,497.00
2023-04-12T10:52:03.014Z,493.00
2023-04-12T10:53:03.044Z,493.00
2023-04-12T10:54:03.015Z,495.00
2023-04-12T10:55:03.050Z,495.00
2023-04-12T10:56:03.079Z,491.00
2023-04-12T10:57:03.071Z,491.00
2023-04-12T10:58:03.030Z,489.00
2023-04-12T10:59:03.512Z,482.00
2023-04-12T11:00:03.082Z,482.00
2023-04-12T11:01:03.135Z,482.00
2023-04-12T11:02:03.210Z,481.00
2023-04-12T11:03:03.187Z,481.00
2023-04-12T11:04:03.301Z,481.00
2023-04-12T11:05:03.165Z,479.00
2023-04-12T11:06:16.035Z,476.00
2023-04-12T11:07:04.071Z,474.00
2023-04-12T11:08:03.019Z,474.00
2023-04-12T11:09:02.978Z,472.00
2023-04-12T11:10:02.975Z,470.00
2023-04-12T11:11:02.945Z,469.00
2023-04-12T11:13:22.018Z,464.00
2023-04-12T11:14:21.986Z,470.00
2023-04-12T11:15:22.046Z,472.00
2023-04-12T11:16:22.022Z,472.00
2023-04-12T11:17:21.986Z,470.00
2023-04-12T11:18:22.030Z,468.00
2023-04-12T11:19:21.878Z,464.00
2023-04-12T11:20:21.860Z,461.00
2023-04-12T11:21:21.817Z,460.00
2023-04-12T11:22:21.820Z,460.00
2023-04-12T11:23:21.771Z,459.00
2023-04-12T11:24:21.738Z,460.00
2023-04-12T11:25:21.706Z,457.00
2023-04-12T11:26:21.724Z,457.00
2023-04-12T11:27:21.678Z,456.00
2023-04-12T11:28:28.663Z,454.00
2023-04-12T11:29:22.599Z,452.00
2023-04-12T11:30:21.583Z,451.00
2023-04-12T11:31:21.620Z,452.00
2023-04-12T11:32:21.631Z,456.00
2023-04-12T11:33:21.522Z,457.00
2023-04-12T11:34:21.521Z,458.00
2023-04-12T11:35:21.486Z,457.00
2023-04-12T11:36:21.495Z,458.00
2023-04-12T11:37:21.446Z,459.00
2023-04-12T11:38:21.437Z,459.00
2023-04-12T11:39:21.415Z,459.00
2023-04-12T11:40:21.385Z,458.00
2023-04-12T11:41:21.370Z,458.00
2023-04-12T11:42:21.387Z,460.00
2023-04-12T11:43:21.346Z,461.00
2023-04-12T11:44:21.305Z,463.00
2023-04-12T11:45:21.298Z,464.00
2023-04-12T11:46:21.345Z,464.00
2023-04-12T11:47:21.273Z,466.00
2023-04-12T11:48:21.233Z,464.00
2023-04-12T11:49:21.213Z,466.00
2023-04-12T11:50:21.207Z,467.00
2023-04-12T11:51:21.189Z,468.00
2023-04-12T11:52:21.131Z,466.00
2023-04-12T11:53:21.099Z,465.00
2023-04-12T11:54:21.070Z,465.00
2023-04-12T11:55:21.055Z,465.00
2023-04-12T11:56:21.031Z,466.00
2023-04-12T11:57:21.020Z,466.00
2023-04-12T11:58:20.989Z,466.00
2023-04-12T11:59:20.956Z,466.00
2023-04-12T12:00:20.940Z,465.00
2023-04-12T12:01:20.918Z,466.00
2023-04-12T12:02:23.921Z,468.00
2023-04-12T12:03:21.164Z,465.00
2023-04-12T12:04:21.044Z,467.00
2023-04-12T12:05:21.018Z,467.00
2023-04-12T12:06:21.054Z,470.00
2023-04-12T12:07:21.494Z,470.00
2023-04-12T12:08:20.753Z,472.00
2023-04-12T12:09:20.734Z,472.00
2023-04-12T12:10:37.756Z,472.00
2023-04-12T12:11:21.702Z,473.00
2023-04-12T12:12:20.663Z,475.00
2023-04-12T12:13:20.626Z,475.00
2023-04-12T12:14:20.600Z,474.00
2023-04-12T12:15:20.590Z,474.00
2023-04-12T12:16:20.608Z,474.00
2023-04-12T12:17:20.589Z,473.00
2023-04-12T12:18:20.502Z,475.00
2023-04-12T12:19:20.495Z,475.00
2023-04-12T12:20:20.444Z,475.00
2023-04-12T12:21:20.433Z,475.00
2023-04-12T12:22:20.398Z,474.00
2023-04-12T12:23:20.362Z,474.00
2023-04-12T12:24:20.347Z,474.00
2023-04-12T12:25:20.329Z,475.00
2023-04-12T12:26:20.336Z,473.00
2023-04-12T12:27:20.313Z,472.00
2023-04-12T12:28:20.303Z,470.00
2023-04-12T12:29:20.259Z,469.00